createdAt,value
2022-10-09T00:00:56.269Z,285.00
2022-10-09T00:01:56.337Z,290.70
2022-10-09T00:02:56.249Z,308.20
2022-10-09T00:03:56.224Z,327.90
2022-10-09T00:04:56.325Z,335.30
2022-10-09T00:05:56.202Z,341.10
2022-10-09T00:06:56.237Z,355.30
2022-10-09T00:07:56.195Z,347.50
2022-10-09T00:08:56.171Z,367.20
2022-10-09T00:09:56.203Z,367.80
2022-10-09T00:10:56.335Z,377.40
2022-10-09T00:11:56.188Z,375.00
2022-10-09T00:12:56.130Z,367.30
2022-10-09T00:13:56.120Z,365.60
2022-10-09T00:14:56.126Z,368.90
2022-10-09T00:15:56.085Z,381.80
2022-10-09T00:16:56.147Z,380.00
2022-10-09T00:17:56.069Z,372.10
2022-10-09T00:18:56.070Z,375.80
2022-10-09T00:19:56.053Z,369.00
2022-10-09T00:20:56.050Z,375.40
2022-10-09T00:21:56.060Z,350.30
2022-10-09T00:22:56.014Z,371.50
2022-10-09T00:23:56.013Z,353.90
2022-10-09T00:24:55.989Z,370.80
2022-10-09T00:25:55.990Z,371.30
2022-10-09T00:26:56.026Z,381.00
2022-10-09T00:27:55.971Z,382.90
2022-10-09T00:28:56.032Z,388.30
2022-10-09T00:29:55.925Z,375.30
2022-10-09T00:30:56.000Z,390.10
2022-10-09T00:31:55.962Z,377.30
2022-10-09T00:32:55.907Z,468.20
2022-10-09T00:33:55.897Z,429.70
2022-10-09T00:34:55.897Z,389.90
2022-10-09T00:35:55.864Z,424.10
2022-10-09T00:36:55.908Z,355.90
2022-10-09T00:37:55.849Z,377.70
2022-10-09T00:38:55.832Z,374.50
2022-10-09T00:39:55.823Z,359.30
2022-10-09T00:40:55.804Z,386.60
2022-10-09T00:41:55.837Z,348.90
2022-10-09T00:42:55.774Z,347.80
2022-10-09T00:43:55.755Z,349.30
2022-10-09T00:44:55.755Z,354.00
2022-10-09T00:45:55.811Z,346.50
2022-10-09T00:46:55.792Z,347.00
2022-10-09T00:47:55.732Z,325.70
2022-10-09T00:48:55.723Z,329.80
2022-10-09T00:49:55.703Z,339.30
2022-10-09T00:50:55.706Z,305.90
2022-10-09T00:51:55.734Z,316.00
2022-10-09T00:52:55.669Z,313.90
2022-10-09T00:53:55.671Z,337.00
2022-10-09T00:54:55.646Z,353.90
2022-10-09T00:55:55.642Z,351.30
2022-10-09T00:56:55.681Z,344.30
2022-10-09T00:57:55.623Z,360.80
2022-10-09T00:58:55.610Z,340.90
2022-10-09T00:59:55.618Z,348.00
2022-10-09T01:00:55.715Z,351.60
2022-10-09T01:01:55.796Z,325.70
2022-10-09T01:02:55.594Z,327.50
2022-10-09T01:03:55.546Z,335.80
2022-10-09T01:04:55.552Z,393.60
2022-10-09T01:05:55.531Z,323.40
2022-10-09T01:06:55.581Z,371.30
2022-10-09T01:07:55.506Z,343.50
2022-10-09T01:08:55.511Z,315.80
2022-10-09T01:09:55.480Z,346.90
2022-10-09T01:10:55.482Z,348.50
2022-10-09T01:11:55.507Z,305.60
2022-10-09T01:12:55.439Z,323.50
2022-10-09T01:13:55.420Z,324.70
2022-10-09T01:14:55.421Z,363.00
2022-10-09T01:15:55.475Z,335.50
2022-10-09T01:16:55.459Z,319.60
2022-10-09T01:17:55.384Z,322.30
2022-10-09T01:18:55.387Z,334.50
2022-10-09T01:19:55.374Z,329.70
2022-10-09T01:20:55.366Z,342.70
2022-10-09T01:21:55.399Z,314.90
2022-10-09T01:22:55.352Z,329.00
2022-10-09T01:23:55.329Z,343.00
2022-10-09T01:24:55.318Z,339.90
2022-10-09T01:25:55.307Z,332.10
2022-10-09T01:26:55.368Z,358.10
2022-10-09T01:27:55.268Z,372.60
2022-10-09T01:28:55.270Z,418.80
2022-10-09T01:29:55.275Z,465.30
2022-10-09T01:30:55.276Z,416.10
2022-10-09T01:31:55.286Z,451.80
2022-10-09T01:32:55.226Z,427.50
2022-10-09T01:33:55.205Z,418.10
2022-10-09T01:34:55.203Z,385.80
2022-10-09T01:35:55.191Z,381.80
2022-10-09T01:36:55.245Z,372.60
2022-10-09T01:37:55.165Z,362.80
2022-10-09T01:38:55.170Z,385.70
2022-10-09T01:39:55.145Z,347.40
2022-10-09T01:40:55.124Z,330.00
2022-10-09T01:41:55.145Z,325.10
2022-10-09T01:42:55.087Z,334.10
2022-10-09T01:43:55.084Z,351.40
2022-10-09T01:44:55.085Z,305.80
2022-10-09T01:45:55.105Z,318.70
2022-10-09T01:46:55.147Z,315.20
2022-10-09T01:47:55.050Z,375.30
2022-10-09T01:48:55.048Z,336.00
2022-10-09T01:49:55.012Z,399.40
2022-10-09T01:50:55.029Z,356.30
2022-10-09T01:51:55.063Z,370.40
2022-10-09T01:52:55.001Z,382.30
2022-10-09T01:53:54.987Z,336.70
2022-10-09T01:54:54.963Z,355.50
2022-10-09T01:55:54.949Z,347.20
2022-10-09T01:56:55.007Z,359.60
2022-10-09T01:57:54.946Z,355.30
2022-10-09T01:58:54.922Z,392.90
2022-10-09T01:59:54.924Z,361.50
2022-10-09T02:00:54.902Z,399.40
2022-10-09T02:01:55.055Z,398.70
2022-10-09T02:02:54.929Z,391.50
2022-10-09T02:03:54.872Z,414.80
2022-10-09T02:04:54.862Z,394.80
2022-10-09T02:05:54.851Z,408.70
2022-10-09T02:06:54.879Z,372.10
2022-10-09T02:07:54.817Z,361.60
2022-10-09T02:08:54.806Z,370.10
2022-10-09T02:09:54.808Z,360.70
2022-10-09T02:10:54.782Z,346.60
2022-10-09T02:11:54.810Z,315.00
2022-10-09T02:12:54.760Z,335.10
2022-10-09T02:13:54.740Z,346.00
2022-10-09T02:14:54.738Z,309.40
2022-10-09T02:15:54.804Z,335.80
2022-10-09T02:16:54.765Z,300.70
2022-10-09T02:17:54.707Z,355.80
2022-10-09T02:18:54.707Z,291.90
2022-10-09T02:19:54.697Z,327.80
2022-10-09T02:20:54.699Z,312.60
2022-10-09T02:21:54.793Z,327.20
2022-10-09T02:22:54.638Z,343.10
2022-10-09T02:23:54.650Z,350.60
2022-10-09T02:24:54.626Z,331.20
2022-10-09T02:25:54.626Z,334.30
2022-10-09T02:26:54.657Z,336.70
2022-10-09T02:27:54.609Z,361.80
2022-10-09T02:28:54.614Z,378.00
2022-10-09T02:29:54.572Z,334.90
2022-10-09T02:30:54.584Z,390.70
2022-10-09T02:31:54.604Z,343.00
2022-10-09T02:32:54.595Z,395.50
2022-10-09T02:33:54.563Z,358.30
2022-10-09T02:34:54.522Z,375.30
2022-10-09T02:35:54.505Z,347.40
2022-10-09T02:36:54.570Z,371.10
2022-10-09T02:37:54.485Z,337.40
2022-10-09T02:38:54.465Z,357.40
2022-10-09T02:39:54.444Z,365.10
2022-10-09T02:40:54.445Z,365.80
2022-10-09T02:41:54.467Z,374.70
2022-10-09T02:42:54.410Z,410.60
2022-10-09T02:43:54.412Z,440.50
2022-10-09T02:44:54.382Z,468.10
2022-10-09T02:45:54.383Z,496.00
2022-10-09T02:46:54.417Z,522.20
2022-10-09T02:47:54.388Z,524.60
2022-10-09T02:48:54.370Z,486.90
2022-10-09T02:49:54.342Z,476.10
2022-10-09T02:50:54.333Z,458.80
2022-10-09T02:51:54.363Z,467.70
2022-10-09T02:52:54.312Z,451.30
2022-10-09T02:53:54.294Z,433.10
2022-10-09T02:54:54.282Z,453.00
2022-10-09T02:55:54.289Z,488.80
2022-10-09T02:56:54.321Z,485.90
2022-10-09T02:57:54.258Z,489.00
2022-10-09T02:58:54.240Z,481.50
2022-10-09T02:59:54.237Z,481.60
2022-10-09T03:00:54.225Z,495.80
2022-10-09T03:01:54.338Z,505.60
2022-10-09T03:02:54.338Z,475.40
2022-10-09T03:03:54.188Z,495.20
2022-10-09T03:04:54.167Z,476.80
2022-10-09T03:05:54.166Z,500.10
2022-10-09T03:06:54.204Z,490.40
2022-10-09T03:07:54.143Z,522.10
2022-10-09T03:08:54.126Z,501.80
2022-10-09T03:09:54.131Z,554.10
2022-10-09T03:10:54.102Z,527.90
2022-10-09T03:11:54.118Z,494.40
2022-10-09T03:12:54.086Z,512.00
2022-10-09T03:13:54.052Z,524.20
2022-10-09T03:14:54.053Z,470.20
2022-10-09T03:15:54.072Z,521.70
2022-10-09T03:16:54.069Z,445.80
2022-10-09T03:17:54.019Z,501.30
2022-10-09T03:18:54.033Z,448.50
2022-10-09T03:19:54.005Z,501.20
2022-10-09T03:20:53.983Z,494.90
2022-10-09T03:21:54.021Z,439.90
2022-10-09T03:22:53.957Z,444.70
2022-10-09T03:23:53.962Z,470.90
2022-10-09T03:24:53.936Z,396.00
2022-10-09T03:25:53.931Z,433.50
2022-10-09T03:26:53.963Z,437.10
2022-10-09T03:27:53.907Z,417.40
2022-10-09T03:28:53.942Z,453.70
2022-10-09T03:29:53.883Z,479.60
2022-10-09T03:30:54.023Z,495.20
2022-10-09T03:31:53.977Z,467.90
2022-10-09T03:32:53.871Z,524.20
2022-10-09T03:33:53.841Z,445.80
2022-10-09T03:34:53.827Z,480.80
2022-10-09T03:35:53.816Z,436.00
2022-10-09T03:36:53.848Z,526.10
2022-10-09T03:37:53.793Z,432.10
2022-10-09T03:38:53.778Z,455.30
2022-10-09T03:39:53.778Z,544.00
2022-10-09T03:40:53.758Z,427.30
2022-10-09T03:41:53.788Z,470.30
2022-10-09T03:42:53.736Z,476.00
2022-10-09T03:43:53.720Z,471.20
2022-10-09T03:44:53.711Z,417.00
2022-10-09T03:45:53.699Z,434.20
2022-10-09T03:46:53.773Z,466.30
2022-10-09T03:47:53.682Z,413.90
2022-10-09T03:48:53.661Z,428.10
2022-10-09T03:49:53.651Z,446.10
2022-10-09T03:50:53.638Z,401.60
2022-10-09T03:51:53.676Z,411.20
2022-10-09T03:52:53.618Z,458.20
2022-10-09T03:53:53.611Z,382.50
2022-10-09T03:54:53.600Z,424.60
2022-10-09T03:55:53.696Z,384.30
2022-10-09T03:56:53.628Z,393.20
2022-10-09T03:57:53.575Z,374.10
2022-10-09T03:58:53.563Z,400.10
2022-10-09T03:59:53.553Z,462.30
2022-10-09T04:00:53.584Z,408.50
2022-10-09T04:01:53.563Z,429.20
2022-10-09T04:02:53.766Z,446.20
2022-10-09T04:03:53.535Z,452.70
2022-10-09T04:04:53.493Z,443.10
2022-10-09T04:05:53.478Z,443.40
2022-10-09T04:06:53.507Z,435.70
2022-10-09T04:07:53.467Z,413.00
2022-10-09T04:08:53.443Z,395.80
2022-10-09T04:09:53.433Z,350.50
2022-10-09T04:10:53.421Z,337.00
2022-10-09T04:11:53.456Z,324.10
2022-10-09T04:12:53.404Z,309.70
2022-10-09T04:13:53.396Z,308.90
2022-10-09T04:14:53.377Z,312.80
2022-10-09T04:15:53.403Z,321.00
2022-10-09T04:16:53.392Z,342.70
2022-10-09T04:17:53.340Z,352.10
2022-10-09T04:18:53.324Z,373.40
2022-10-09T04:19:53.333Z,382.50
2022-10-09T04:20:53.340Z,381.80
2022-10-09T04:21:53.345Z,364.70
2022-10-09T04:22:53.289Z,381.80
2022-10-09T04:23:53.283Z,370.40
2022-10-09T04:24:53.276Z,369.90
2022-10-09T04:25:53.258Z,395.40
2022-10-09T04:26:53.291Z,368.80
2022-10-09T04:27:53.234Z,371.90
2022-10-09T04:28:53.228Z,376.40
2022-10-09T04:29:53.211Z,385.40
2022-10-09T04:30:53.195Z,386.60
2022-10-09T04:31:53.267Z,362.10
2022-10-09T04:32:53.171Z,367.50
2022-10-09T04:33:53.161Z,367.00
2022-10-09T04:34:53.151Z,376.60
2022-10-09T04:35:53.143Z,376.80
2022-10-09T04:36:53.170Z,378.70
2022-10-09T04:37:53.122Z,373.90
2022-10-09T04:38:53.116Z,366.90
2022-10-09T04:39:53.111Z,371.30
2022-10-09T04:40:53.081Z,369.00
2022-10-09T04:41:53.110Z,367.10
2022-10-09T04:42:53.066Z,369.70
2022-10-09T04:43:53.056Z,354.10
2022-10-09T04:44:53.046Z,341.10
2022-10-09T04:45:53.075Z,326.50
2022-10-09T04:46:53.060Z,319.30
2022-10-09T04:47:53.004Z,311.60
2022-10-09T04:48:52.994Z,335.30
2022-10-09T04:49:53.012Z,332.40
2022-10-09T04:50:52.978Z,324.30
2022-10-09T04:51:53.004Z,337.60
2022-10-09T04:52:52.957Z,316.70
2022-10-09T04:53:55.268Z,326.40
2022-10-09T04:54:53.924Z,333.10
2022-10-09T04:55:52.919Z,322.30
2022-10-09T04:56:52.955Z,321.40
2022-10-09T04:57:52.900Z,304.80
2022-10-09T04:58:52.884Z,311.00
2022-10-09T04:59:52.879Z,307.50
2022-10-09T05:00:52.883Z,305.60
2022-10-09T05:01:52.923Z,307.70
2022-10-09T05:02:52.843Z,296.40
2022-10-09T05:03:52.828Z,283.90
2022-10-09T05:04:52.813Z,293.20
2022-10-09T05:05:52.811Z,297.60
2022-10-09T05:06:52.835Z,316.10
2022-10-09T05:07:52.794Z,318.10
2022-10-09T05:08:52.772Z,317.80
2022-10-09T05:09:52.755Z,325.60
2022-10-09T05:10:52.749Z,322.70
2022-10-09T05:11:52.783Z,333.80
2022-10-09T05:12:52.728Z,340.20
2022-10-09T05:13:52.706Z,313.30
2022-10-09T05:14:52.709Z,338.30
2022-10-09T05:15:52.696Z,345.10
2022-10-09T05:17:12.517Z,339.40
2022-10-09T05:17:53.670Z,341.60
2022-10-09T05:18:52.655Z,343.20
2022-10-09T05:19:52.648Z,341.10
2022-10-09T05:20:52.636Z,335.70
2022-10-09T05:21:52.660Z,287.90
2022-10-09T05:22:52.884Z,345.30
2022-10-09T05:23:52.612Z,339.80
2022-10-09T05:24:52.598Z,282.10
2022-10-09T05:25:52.581Z,337.30
2022-10-09T05:26:52.613Z,330.00
2022-10-09T05:27:52.600Z,323.40
2022-10-09T05:28:52.610Z,299.70
2022-10-09T05:29:52.543Z,282.10
2022-10-09T05:30:52.527Z,334.60
2022-10-09T05:31:52.603Z,296.30
2022-10-09T05:32:52.609Z,339.40
2022-10-09T05:33:52.498Z,277.20
2022-10-09T05:34:52.486Z,325.80
2022-10-09T05:35:52.468Z,344.20
2022-10-09T05:36:52.505Z,286.80
2022-10-09T05:37:52.450Z,290.30
2022-10-09T05:38:52.451Z,348.20
2022-10-09T05:39:52.426Z,278.60
2022-10-09T05:40:52.411Z,282.90
2022-10-09T05:41:52.448Z,332.70
2022-10-09T05:42:52.394Z,282.90
2022-10-09T05:43:52.375Z,284.60
2022-10-09T05:44:52.371Z,285.50
2022-10-09T05:45:52.454Z,288.90
2022-10-09T05:46:52.386Z,306.40
2022-10-09T05:47:52.331Z,306.10
2022-10-09T05:48:52.331Z,300.30
2022-10-09T05:49:52.306Z,301.40
2022-10-09T05:50:52.305Z,312.20
2022-10-09T05:51:52.322Z,323.50
2022-10-09T05:52:52.302Z,332.50
2022-10-09T05:53:52.254Z,336.50
2022-10-09T05:54:52.256Z,305.80
2022-10-09T05:55:52.234Z,297.10
2022-10-09T05:56:52.272Z,286.90
2022-10-09T05:57:52.210Z,276.50
2022-10-09T05:58:52.211Z,274.40
2022-10-09T05:59:52.195Z,274.60
2022-10-09T06:00:52.372Z,278.10
2022-10-09T06:01:52.280Z,282.20
2022-10-09T06:02:52.594Z,296.70
2022-10-09T06:03:52.151Z,288.70
2022-10-09T06:04:52.131Z,290.80
2022-10-09T06:05:52.120Z,288.40
2022-10-09T06:06:52.159Z,283.90
2022-10-09T06:07:52.111Z,279.30
2022-10-09T06:08:52.089Z,280.90
2022-10-09T06:09:52.074Z,283.50
2022-10-09T06:10:52.074Z,281.40
2022-10-09T06:11:52.099Z,278.40
2022-10-09T06:12:52.259Z,269.30
2022-10-09T06:13:52.054Z,263.30
2022-10-09T06:14:52.025Z,254.00
2022-10-09T06:15:52.001Z,224.90
2022-10-09T06:16:52.085Z,239.00
2022-10-09T06:17:51.989Z,258.90
2022-10-09T06:18:51.979Z,245.80
2022-10-09T06:19:51.969Z,253.50
2022-10-09T06:20:51.958Z,239.00
2022-10-09T06:21:52.004Z,241.20
2022-10-09T06:22:51.985Z,275.20
2022-10-09T06:23:51.918Z,276.10
2022-10-09T06:24:51.921Z,206.10
2022-10-09T06:25:51.889Z,138.60
2022-10-09T06:26:51.933Z,156.40
2022-10-09T06:27:51.873Z,183.40
2022-10-09T06:28:51.894Z,239.70
2022-10-09T06:29:51.864Z,272.90
2022-10-09T06:30:51.879Z,278.40
2022-10-09T06:31:51.876Z,277.10
2022-10-09T06:32:52.168Z,285.80
2022-10-09T06:33:51.807Z,297.30
2022-10-09T06:34:51.801Z,272.10
2022-10-09T06:35:51.779Z,265.70
2022-10-09T06:36:51.811Z,249.70
2022-10-09T06:37:51.751Z,263.30
2022-10-09T06:38:51.758Z,225.20
2022-10-09T06:39:51.739Z,210.20
2022-10-09T06:40:51.740Z,191.50
2022-10-09T06:41:51.760Z,204.40
2022-10-09T06:42:52.047Z,201.00
2022-10-09T06:43:51.700Z,206.80
2022-10-09T06:44:51.688Z,242.10
2022-10-09T06:45:51.736Z,326.60
2022-10-09T06:46:51.705Z,350.60
2022-10-09T06:47:51.645Z,144.30
2022-10-09T06:48:51.644Z,122.50
2022-10-09T06:49:51.625Z,203.10
2022-10-09T06:50:51.623Z,370.50
2022-10-09T06:51:51.639Z,325.50
2022-10-09T06:52:51.884Z,191.90
2022-10-09T06:53:51.583Z,78.90
2022-10-09T06:54:51.563Z,102.00
2022-10-09T06:55:51.549Z,236.20
2022-10-09T06:56:51.614Z,179.50
2022-10-09T06:57:51.555Z,212.70
2022-10-09T06:58:51.539Z,211.00
2022-10-09T06:59:51.513Z,177.10
2022-10-09T07:00:51.514Z,104.50
2022-10-09T07:01:51.610Z,153.10
2022-10-09T07:02:51.915Z,208.00
2022-10-09T07:03:51.475Z,404.40
2022-10-09T07:04:51.458Z,621.10
2022-10-09T07:05:51.446Z,825.10
2022-10-09T07:06:51.479Z,1999.90
2022-10-09T07:07:51.429Z,374.30
2022-10-09T07:08:51.404Z,271.90
2022-10-09T07:09:51.410Z,1999.90
2022-10-09T07:10:51.400Z,125.50
2022-10-09T07:11:51.416Z,1999.90
2022-10-09T07:12:51.695Z,1999.90
2022-10-09T07:13:51.357Z,1999.90
2022-10-09T07:14:51.350Z,1999.90
2022-10-09T07:15:51.411Z,1999.90
2022-10-09T07:16:51.371Z,1999.90
2022-10-09T07:17:51.314Z,1999.90
2022-10-09T07:18:51.313Z,1999.90
2022-10-09T07:19:51.284Z,1999.90
2022-10-09T07:20:51.286Z,1999.90
2022-10-09T07:21:51.306Z,1999.90
2022-10-09T07:22:51.651Z,1999.90
2022-10-09T07:23:51.238Z,1999.90
2022-10-09T07:24:51.225Z,1999.90
2022-10-09T07:25:51.219Z,1999.90
2022-10-09T07:26:51.250Z,1999.90
2022-10-09T07:27:51.189Z,1999.90
2022-10-09T07:28:51.230Z,1999.90
2022-10-09T07:29:51.171Z,1999.90
2022-10-09T07:30:51.194Z,1999.90
2022-10-09T07:31:51.203Z,1999.90
2022-10-09T07:32:51.526Z,1999.90
2022-10-09T07:33:51.136Z,1999.90
2022-10-09T07:34:51.127Z,1999.90
2022-10-09T07:35:51.140Z,1999.90
2022-10-09T07:36:51.141Z,1999.90
2022-10-09T07:37:51.088Z,1999.90
2022-10-09T07:38:51.069Z,1999.90
2022-10-09T07:39:51.049Z,1999.90
2022-10-09T07:40:51.064Z,1999.90
2022-10-09T07:41:51.077Z,1999.90
2022-10-09T07:42:51.329Z,1999.90
2022-10-09T07:43:51.010Z,1999.90
2022-10-09T07:44:51.009Z,1999.90
2022-10-09T07:45:51.024Z,1999.90
2022-10-09T07:46:51.051Z,1999.90
2022-10-09T07:47:50.969Z,1999.90
2022-10-09T07:48:50.965Z,1999.90
2022-10-09T07:49:50.941Z,1999.90
2022-10-09T07:50:50.938Z,1999.90
2022-10-09T07:51:50.962Z,1999.90
2022-10-09T07:52:51.603Z,1999.90
2022-10-09T07:53:50.908Z,1999.90
2022-10-09T07:54:50.891Z,1999.90
2022-10-09T07:55:50.889Z,1999.90
2022-10-09T07:56:50.911Z,1999.90
2022-10-09T07:57:50.851Z,1440.20
2022-10-09T07:58:50.846Z,906.90
2022-10-09T07:59:50.830Z,1999.90
2022-10-09T08:00:50.811Z,804.70
2022-10-09T08:01:50.887Z,50.90
2022-10-09T08:02:51.124Z,19.10
2022-10-09T08:03:50.789Z,20.30
2022-10-09T08:04:50.784Z,16.70
2022-10-09T08:05:50.762Z,15.80
2022-10-09T08:06:50.805Z,14.60
2022-10-09T08:07:50.740Z,15.10
2022-10-09T08:08:50.734Z,15.70
2022-10-09T08:09:50.734Z,15.40
2022-10-09T08:10:50.714Z,14.80
2022-10-09T08:11:50.743Z,15.60
2022-10-09T08:12:51.338Z,16.10
2022-10-09T08:13:50.678Z,16.80
2022-10-09T08:14:50.667Z,15.10
2022-10-09T08:15:50.721Z,13.40
2022-10-09T08:16:50.685Z,13.90
2022-10-09T08:17:50.628Z,14.50
2022-10-09T08:18:50.623Z,14.00
2022-10-09T08:19:50.638Z,14.20
2022-10-09T08:20:50.607Z,13.40
2022-10-09T08:21:50.634Z,13.50
2022-10-09T08:22:51.064Z,16.70
2022-10-09T08:23:50.549Z,13.90
2022-10-09T08:24:50.550Z,11.80
2022-10-09T08:25:50.543Z,11.20
2022-10-09T08:26:50.573Z,10.20
2022-10-09T08:27:50.515Z,10.50
2022-10-09T08:28:50.552Z,9.60
2022-10-09T08:29:50.477Z,9.60
2022-10-09T08:30:50.512Z,8.80
2022-10-09T08:31:50.521Z,7.80
2022-10-09T08:32:51.007Z,7.20
2022-10-09T08:33:50.455Z,7.00
2022-10-09T08:34:50.433Z,6.90
2022-10-09T08:35:50.434Z,8.40
2022-10-09T08:36:50.458Z,7.80
2022-10-09T08:37:50.409Z,8.30
2022-10-09T08:38:50.398Z,8.20
2022-10-09T08:39:50.382Z,8.40
2022-10-09T08:40:52.900Z,7.60
2022-10-09T08:41:51.398Z,6.50
2022-10-09T08:42:50.895Z,6.30
2022-10-09T08:43:50.331Z,7.00
2022-10-09T08:44:50.328Z,7.00
2022-10-09T08:45:50.309Z,7.90
2022-10-09T08:46:50.387Z,7.70
2022-10-09T08:47:50.289Z,8.10
2022-10-09T08:48:50.289Z,7.00
2022-10-09T08:49:50.264Z,6.00
2022-10-09T08:50:50.263Z,5.80
2022-10-09T08:51:50.280Z,5.80
2022-10-09T08:52:50.414Z,5.50
2022-10-09T08:53:50.220Z,5.70
2022-10-09T08:54:50.210Z,5.90
2022-10-09T08:55:50.208Z,5.80
2022-10-09T08:56:50.244Z,5.70
2022-10-09T08:57:50.181Z,5.90
2022-10-09T08:58:50.160Z,6.10
2022-10-09T08:59:50.165Z,5.90
2022-10-09T09:00:50.156Z,5.50
2022-10-09T09:01:50.206Z,5.60
2022-10-09T09:02:50.391Z,5.60
2022-10-09T09:03:50.094Z,5.50
2022-10-09T09:04:54.541Z,5.80
2022-10-09T09:05:50.095Z,5.60
2022-10-09T09:06:50.140Z,5.70
2022-10-09T09:07:50.060Z,6.10
2022-10-09T09:08:50.072Z,5.80
2022-10-09T09:09:50.032Z,6.20
2022-10-09T09:10:50.024Z,6.20
2022-10-09T09:11:50.062Z,6.50
2022-10-09T09:12:50.340Z,6.40
2022-10-09T09:13:49.995Z,5.80
2022-10-09T09:14:49.978Z,5.60
2022-10-09T09:15:50.063Z,5.90
2022-10-09T09:16:50.012Z,6.40
2022-10-09T09:17:49.957Z,6.00
2022-10-09T09:18:49.965Z,5.80
2022-10-09T09:19:49.928Z,5.50
2022-10-09T09:20:49.941Z,5.80
2022-10-09T09:21:49.951Z,5.70
2022-10-09T09:22:50.435Z,6.50
2022-10-09T09:23:49.889Z,6.20
2022-10-09T09:24:49.892Z,6.10
2022-10-09T09:25:49.879Z,5.80
2022-10-09T09:26:49.900Z,5.60
2022-10-09T09:27:49.849Z,6.10
2022-10-09T09:28:49.898Z,5.80
2022-10-09T09:29:49.831Z,6.10
2022-10-09T09:30:49.859Z,5.90
2022-10-09T09:31:49.849Z,6.20
2022-10-09T09:32:50.253Z,6.60
2022-10-09T09:33:49.775Z,6.30
2022-10-09T09:34:49.770Z,6.40
2022-10-09T09:35:49.767Z,6.20
2022-10-09T09:36:49.804Z,6.30
2022-10-09T09:37:49.733Z,8.20
2022-10-09T09:39:35.150Z,6.90
2022-10-09T09:40:50.713Z,7.80
2022-10-09T09:41:49.735Z,6.60
2022-10-09T09:42:49.987Z,6.40
2022-10-09T09:43:49.658Z,6.20
2022-10-09T09:44:49.644Z,6.30
2022-10-09T09:45:49.621Z,6.00
2022-10-09T09:46:49.802Z,6.70
2022-10-09T09:47:49.937Z,7.50
2022-10-09T09:48:49.610Z,7.80
2022-10-09T09:49:49.620Z,7.40
2022-10-09T09:50:59.870Z,8.00
2022-10-09T09:51:50.623Z,7.60
2022-10-09T09:52:49.556Z,8.00
2022-10-09T09:53:49.571Z,8.30
2022-10-09T09:54:49.552Z,7.50
2022-10-09T09:55:49.540Z,6.40
2022-10-09T09:57:50.889Z,8.60
2022-10-09T09:58:49.506Z,6.60
2022-10-09T09:59:49.486Z,7.00
2022-10-09T10:00:49.513Z,6.70
2022-10-09T10:01:49.554Z,6.60
2022-10-09T10:02:49.696Z,6.30
2022-10-09T10:03:49.437Z,6.60
2022-10-09T10:04:49.419Z,6.50
2022-10-09T10:05:49.431Z,6.80
2022-10-09T10:06:49.443Z,7.50
2022-10-09T10:07:49.400Z,7.70
2022-10-09T10:08:49.375Z,6.80
2022-10-09T10:09:49.381Z,6.80
2022-10-09T10:10:49.373Z,6.30
2022-10-09T10:11:49.399Z,6.40
2022-10-09T10:12:49.481Z,6.00
2022-10-09T10:13:49.330Z,6.30
2022-10-09T10:14:49.310Z,6.50
2022-10-09T10:15:49.368Z,6.60
2022-10-09T10:16:49.331Z,6.30
2022-10-09T10:17:49.287Z,6.50
2022-10-09T10:18:49.275Z,6.40
2022-10-09T10:19:49.258Z,5.80
2022-10-09T10:20:49.251Z,6.40
2022-10-09T10:21:49.271Z,6.40
2022-10-09T10:22:49.518Z,6.20
2022-10-09T10:23:49.261Z,6.80
2022-10-09T10:24:49.202Z,6.50
2022-10-09T10:25:49.209Z,7.10
2022-10-09T10:26:49.179Z,6.20
2022-10-09T10:27:49.417Z,5.80
2022-10-09T10:28:49.194Z,5.40
2022-10-09T10:29:49.187Z,7.10
2022-10-09T10:30:49.159Z,6.40
2022-10-09T10:31:49.129Z,6.20
2022-10-09T10:32:49.168Z,14.20
2022-10-09T10:33:49.135Z,9.90
2022-10-09T10:34:49.074Z,7.20
2022-10-09T10:35:49.079Z,7.00
2022-10-09T10:36:49.061Z,6.50
2022-10-09T10:37:49.240Z,6.20
2022-10-09T10:38:49.065Z,7.30
2022-10-09T10:39:49.055Z,7.10
2022-10-09T10:40:49.027Z,6.90
2022-10-09T10:41:49.044Z,7.20
2022-10-09T10:42:49.067Z,7.20
2022-10-09T10:43:49.070Z,6.40
2022-10-09T10:44:48.992Z,6.50
2022-10-09T10:45:48.974Z,7.20
2022-10-09T10:46:49.122Z,7.80
2022-10-09T10:47:49.217Z,6.40
2022-10-09T10:48:48.947Z,6.30
2022-10-09T10:49:48.939Z,6.40
2022-10-09T10:50:48.932Z,5.90
2022-10-09T10:51:48.894Z,6.70
2022-10-09T10:52:49.461Z,6.00
2022-10-09T10:53:48.891Z,5.90
2022-10-09T10:54:48.871Z,6.00
2022-10-09T10:55:48.897Z,6.30
2022-10-09T10:56:48.864Z,5.90
2022-10-09T10:57:49.118Z,6.60
2022-10-09T10:58:48.824Z,6.40
2022-10-09T10:59:48.830Z,6.20
2022-10-09T11:00:48.849Z,5.80
2022-10-09T11:01:48.792Z,6.00
2022-10-09T11:02:48.946Z,6.10
2022-10-09T11:03:48.843Z,5.60
2022-10-09T11:04:48.753Z,5.70
2022-10-09T11:05:48.735Z,5.70
2022-10-09T11:06:48.732Z,5.30
2022-10-09T11:07:48.783Z,6.00
2022-10-09T11:08:48.733Z,5.60
2022-10-09T11:09:48.722Z,5.80
2022-10-09T11:10:48.685Z,5.60
2022-10-09T11:11:48.713Z,6.50
2022-10-09T11:12:48.800Z,7.30
2022-10-09T11:13:48.672Z,7.20
2022-10-09T11:14:48.691Z,7.70
2022-10-09T11:15:48.661Z,8.40
2022-10-09T11:16:48.791Z,8.30
2022-10-09T11:17:48.654Z,7.70
2022-10-09T11:18:48.613Z,7.10
2022-10-09T11:19:48.619Z,6.80
2022-10-09T11:20:48.593Z,6.10
2022-10-09T11:21:48.631Z,6.20
2022-10-09T11:22:48.786Z,6.40
2022-10-09T11:23:48.563Z,6.80
2022-10-09T11:24:48.552Z,6.80
2022-10-09T11:25:48.531Z,7.00
2022-10-09T11:26:48.567Z,6.70
2022-10-09T11:27:48.503Z,6.80
2022-10-09T11:28:48.590Z,6.80
2022-10-09T11:29:48.490Z,6.90
2022-10-09T11:30:48.483Z,7.20
2022-10-09T11:31:48.520Z,7.70
2022-10-09T11:32:48.458Z,7.90
2022-10-09T11:33:48.438Z,7.40
2022-10-09T11:34:48.475Z,7.70
2022-10-09T11:35:48.406Z,7.60
2022-10-09T11:36:48.457Z,7.80
2022-10-09T11:37:48.679Z,7.10
2022-10-09T11:38:48.389Z,7.10
2022-10-09T11:39:48.392Z,6.80
2022-10-09T11:40:48.371Z,7.00
2022-10-09T11:41:48.428Z,7.10
2022-10-09T11:42:48.347Z,7.60
2022-10-09T11:43:48.353Z,7.80
2022-10-09T11:44:48.400Z,7.20
2022-10-09T11:45:48.363Z,7.00
2022-10-09T11:46:48.374Z,7.20
2022-10-09T11:47:48.658Z,7.40
2022-10-09T11:48:48.297Z,7.00
2022-10-09T11:49:48.267Z,6.80
2022-10-09T11:50:48.298Z,7.30
2022-10-09T11:51:48.310Z,6.70
2022-10-09T11:52:48.230Z,7.40
2022-10-09T11:53:48.236Z,7.30
2022-10-09T11:54:48.219Z,6.90
2022-10-09T11:55:48.226Z,7.40
2022-10-09T11:56:48.246Z,7.70
2022-10-09T11:57:48.586Z,7.00
2022-10-09T11:58:48.177Z,7.30
2022-10-09T11:59:48.209Z,7.40
2022-10-09T12:00:48.243Z,7.40
2022-10-09T12:01:48.200Z,7.50
2022-10-09T12:02:48.218Z,7.10
2022-10-09T12:03:48.110Z,6.70
2022-10-09T12:04:54.916Z,7.20
2022-10-09T12:05:49.090Z,6.70
2022-10-09T12:06:48.118Z,7.00
2022-10-09T12:07:48.086Z,6.90
2022-10-09T12:08:48.075Z,7.40
2022-10-09T12:09:48.048Z,7.00
2022-10-09T12:10:48.048Z,7.20
2022-10-09T12:11:48.087Z,7.50
2022-10-09T12:12:48.372Z,7.50
2022-10-09T12:13:48.016Z,7.60
2022-10-09T12:14:48.022Z,7.40
2022-10-09T12:15:47.991Z,8.00
2022-10-09T12:16:48.112Z,7.60
2022-10-09T12:17:47.971Z,7.10
2022-10-09T12:18:47.956Z,6.80
2022-10-09T12:19:47.962Z,7.00
2022-10-09T12:20:47.931Z,6.80
2022-10-09T12:21:47.970Z,7.00
2022-10-09T12:23:07.248Z,6.70
2022-10-09T12:23:48.917Z,7.10
2022-10-09T12:24:47.887Z,7.10
2022-10-09T12:25:47.898Z,7.00
2022-10-09T12:26:47.901Z,7.10
2022-10-09T12:27:47.852Z,6.90
2022-10-09T12:28:47.921Z,6.80
2022-10-09T12:29:47.831Z,6.80
2022-10-09T12:30:48.019Z,6.90
2022-10-09T12:31:47.861Z,6.90
2022-10-09T12:32:48.249Z,6.70
2022-10-09T12:33:47.783Z,7.30
2022-10-09T12:34:47.768Z,6.80
2022-10-09T12:35:47.752Z,7.10
2022-10-09T12:36:47.816Z,7.30
2022-10-09T12:37:47.755Z,7.20
2022-10-09T12:38:47.731Z,7.00
2022-10-09T12:39:47.733Z,7.10
2022-10-09T12:40:47.729Z,7.40
2022-10-09T12:41:47.758Z,7.40
2022-10-09T12:42:47.926Z,7.70
2022-10-09T12:43:47.715Z,7.60
2022-10-09T12:44:47.690Z,7.40
2022-10-09T12:45:47.714Z,7.00